Zurich, Switzerland
Current Conditions -  °F | °C
As of 6:50 PM on Thursday 29 Jan 2015 (Local Time) from LSMD Reporting Station
Rain Showers Rain Showers  
Wind Chill: 36°   Ceiling: 5900
Heat Index: 36°   Visibility: 6mi
Dew Point: 32°   Wind: 3mph
Humidity: 87%   Direction: 150°SSE
Pressure: 29.12"   Gusts: NA
Location:  47.38°N, 8.54°E
Report Text: LSMD 291750Z AUTO 15003KT 110V190 9999NDV -SHRA FEW017 SCT041 OVC059 02/00 Q0986 RMK WHT
Loading
Personal Weather Stations






























Interactive Weather Map New forecast layout! Learn more

10-Day Weather Forecast

Advertisements
Track Severe Weather on mobile